Terminal Aerodrome Forecast
Issued by NWS

Home | Current Version | Previous Version | Text Only | Print | Product List | Glossary On
Versions: 1 2 3 4 5 6 7 8 9 10 11 12 13 14 15 16 17 18 19 20
000
FTUS46 KPDT 091524 AAB
TAFDLS
TAF AMD
KDLS 091524Z 0915/1012 10005KT 6SM -SHSN BR FEW007 OVC050
      TEMPO 0915/0918 2SM -SN BR BKN007 OVC025
     FM092000 09003KT 3SM -SN BR OVC015=

USA.gov is the U.S. government's official web portal to all federal, state and local government web resources and services.